Accueil
METAR-TAF:

METAR-TAF

Aéroports :

Saint-Yan, France

Aéroport de Saint-Yan

latitude: 46-24-45N, longitude: 004-00-48E, altitude: 244 m

Observation

Le bulletin a été fait il y a 41 minutes, à 01:00 UTC
Vent 1 kt de direction variable
Température 22°C
Humidité 69%
Pression 1021 hPa
Visibilité 10 km ou plus
Ciel couvert à une hauteur de 4300 ft

METAR: LFLN 240100Z AUTO VRB01KT 9999 OVC043 22/16 Q1021

Heure: 03:41 (01:41 UTC)

Prévision

Le bulletin a été fait il y a 8 heures et 41 minutes, à 17:00 UTC
Prévision valable du 23 à 18 UTC au 24 à 03 UTC
Vent 7 kt de ouest
Visibilité 10 km ou plus
Nuages épars à une hauteur de 3000 ft
Probabilité 30%
du 23 à 18 UTC au 23 à 22 UTC
Quelques nuages à une hauteur de 7000 ft, Cumulonimbus.

TAF: LFLN 231700Z 2318/2403 28007KT 9999 SCT030 PROB30 2318/2322 FEW070CB

Observations et prévisions météorologiques de plus de 4000 aéroports (messages METAR et TAF).

Les stations disponibles sont représentées par des disques jaunes et rouges sur la carte.

Passer la souris dessus pour voir le nom de la station.

Cliquer dessus pour voir les observations et prévisions météorologiques.

Pour changer de carte: cliquez sur les boutons verts avec une croix noire pour zoomer, sur le bouton vert avec un tiret pour effectuer un zoom arrière, ou sur les flèches vertes pour les cartes adjacentes.


METAR-TAF: